Time;durP1;ratioP1;P1;durP2;ratioP2;P2;SDS_P1;SDS_P2;PMS_P1;PMS_P2;Temp;Humidity;BMP_temperature;BMP_pressure;BME280_temperature;BME280_humidity;BME280_pressure;Samples;Min_cycle;Max_cycle;Signal;HPM_P1;HPM_P2
2022/07/28 00:01:38;;;;;;;3.55;1.25;;;15.30;99.50;;;;;;5052231;28;20045;-44
2022/07/28 00:04:04;;;;;;;2.65;1.40;;;15.30;99.70;;;;;;5052119;28;20028;-46
2022/07/28 00:06:30;;;;;;;2.90;1.15;;;15.30;99.70;;;;;;5052176;28;20035;-49
2022/07/28 00:08:55;;;;;;;1.92;1.13;;;15.20;99.80;;;;;;5052144;28;20025;-48
2022/07/28 00:11:21;;;;;;;2.58;1.30;;;15.20;99.90;;;;;;5052087;28;20017;-51
2022/07/28 00:13:47;;;;;;;2.70;1.20;;;15.20;99.90;;;;;;5052104;28;20369;-46
2022/07/28 00:16:13;;;;;;;4.82;1.50;;;15.10;99.90;;;;;;5052051;28;20032;-46
2022/07/28 00:18:38;;;;;;;2.55;1.40;;;15.10;99.90;;;;;;5050753;28;20357;-44
2022/07/28 00:21:04;;;;;;;3.03;1.52;;;15.10;99.90;;;;;;5051773;28;20091;-44
2022/07/28 00:23:30;;;;;;;2.55;1.52;;;15.10;99.90;;;;;;5051915;28;20025;-44
2022/07/28 00:25:56;;;;;;;2.58;1.25;;;15.10;99.90;;;;;;5038080;28;20079;-44
2022/07/28 00:28:21;;;;;;;5.22;1.63;;;15.00;99.90;;;;;;5039458;28;20450;-47
2022/07/28 00:30:47;;;;;;;2.33;1.48;;;15.00;99.90;;;;;;5051765;28;20055;-49
2022/07/28 00:33:13;;;;;;;3.30;1.40;;;15.00;99.90;;;;;;5051587;28;20032;-48
2022/07/28 00:35:38;;;;;;;2.40;1.25;;;14.90;99.90;;;;;;5051762;28;20036;-49
2022/07/28 00:38:04;;;;;;;3.90;1.42;;;15.00;99.90;;;;;;5051378;28;20186;-51
2022/07/28 00:43:14;;;;;;;3.30;1.65;;;14.90;99.90;;;;;;5051576;28;20098;-52
2022/07/28 00:45:40;;;;;;;2.58;1.50;;;14.90;99.90;;;;;;5051633;28;20024;-49
2022/07/28 00:48:06;;;;;;;3.33;1.52;;;14.90;99.90;;;;;;5051622;28;20391;-45
2022/07/28 00:50:32;;;;;;;2.15;1.33;;;14.90;99.90;;;;;;5051147;28;20061;-45
2022/07/28 00:52:59;;;;;;;3.05;1.40;;;14.90;99.90;;;;;;5051431;28;20021;-48
2022/07/28 00:55:25;;;;;;;4.82;1.60;;;14.90;99.90;;;;;;5036814;28;20057;-44
2022/07/28 00:57:51;;;;;;;4.60;1.65;;;14.80;99.90;;;;;;5051257;28;20052;-46
2022/07/28 01:00:16;;;;;;;3.83;1.45;;;14.90;99.90;;;;;;5051386;28;20029;-52
2022/07/28 01:02:45;;;;;;;7.43;1.70;;;14.80;99.90;;;;;;5050842;28;20021;-47
2022/07/28 01:05:13;;;;;;;6.05;1.85;;;14.80;99.90;;;;;;5051222;28;20025;-46
2022/07/28 01:07:44;;;;;;;4.60;1.75;;;14.90;99.90;;;;;;5051017;28;20051;-48
2022/07/28 01:10:23;;;;;;;3.88;1.38;;;14.80;99.90;;;;;;5051211;28;20025;-46
2022/07/28 01:13:00;;;;;;;4.28;1.48;;;14.90;99.90;;;;;;5051027;28;20017;-49
2022/07/28 01:15:48;;;;;;;3.38;1.92;;;14.90;99.90;;;;;;5051110;28;20040;-48
2022/07/28 01:18:24;;;;;;;3.92;1.63;;;14.90;99.90;;;;;;5051025;28;20033;-55
2022/07/28 01:20:54;;;;;;;4.20;1.60;;;14.80;99.90;;;;;;5050818;28;20435;-53
2022/07/28 01:23:42;;;;;;;3.33;1.70;;;14.80;99.90;;;;;;5051073;28;20032;-54
2022/07/28 01:26:42;;;;;;;3.85;1.77;;;14.80;99.90;;;;;;5034233;28;20384;-51
2022/07/28 01:29:44;;;;;;;3.55;1.92;;;14.90;99.90;;;;;;5042891;28;20029;-48
2022/07/28 01:32:26;;;;;;;4.05;1.80;;;14.90;99.90;;;;;;5028621;28;20056;-51
2022/07/28 01:35:00;;;;;;;4.85;1.77;;;14.90;99.90;;;;;;5050858;28;20555;-55
2022/07/28 01:37:29;;;;;;;4.07;1.55;;;14.90;99.90;;;;;;5050929;28;20056;-51
2022/07/28 01:40:00;;;;;;;4.18;1.73;;;14.80;99.90;;;;;;5050813;28;20040;-53
2022/07/28 01:42:34;;;;;;;3.75;1.70;;;14.90;99.90;;;;;;5050737;28;20079;-49
2022/07/28 01:45:01;;;;;;;2.78;1.73;;;14.90;99.90;;;;;;5050706;28;20025;-50
2022/07/28 01:47:31;;;;;;;9.57;2.38;;;14.90;99.90;;;;;;5050896;28;20029;-55
2022/07/28 01:50:03;;;;;;;3.67;1.80;;;14.90;99.90;;;;;;5050657;28;20029;-55
2022/07/28 01:52:30;;;;;;;5.35;2.10;;;14.90;99.90;;;;;;5050636;28;20079;-46
2022/07/28 01:54:57;;;;;;;5.05;1.88;;;14.80;99.90;;;;;;5040031;28;20026;-54
2022/07/28 01:57:26;;;;;;;4.80;2.00;;;14.80;99.90;;;;;;5035746;28;20527;-56
2022/07/28 01:59:53;;;;;;;4.43;1.83;;;14.80;99.90;;;;;;5032116;28;20480;-50
2022/07/28 02:02:20;;;;;;;3.22;1.75;;;14.80;99.90;;;;;;5045236;28;20128;-57
2022/07/28 02:04:47;;;;;;;4.40;1.80;;;14.80;99.90;;;;;;5050591;28;20029;-54
2022/07/28 02:07:14;;;;;;;3.30;1.88;;;14.80;99.90;;;;;;5050619;28;20025;-48
2022/07/28 02:09:43;;;;;;;3.47;1.60;;;14.80;99.90;;;;;;5050326;28;20583;-51
2022/07/28 02:12:11;;;;;;;5.88;1.75;;;14.80;99.90;;;;;;5050466;28;20388;-45
2022/07/28 02:14:38;;;;;;;4.37;1.73;;;14.80;99.90;;;;;;5047996;28;20025;-50
2022/07/28 02:17:09;;;;;;;2.85;1.70;;;14.80;99.90;;;;;;5032680;28;20045;-43
2022/07/28 02:19:36;;;;;;;3.92;1.70;;;14.80;99.90;;;;;;5033957;28;20025;-46
2022/07/28 02:22:03;;;;;;;5.88;1.70;;;14.80;99.90;;;;;;5034213;28;20044;-44
2022/07/28 02:24:32;;;;;;;2.78;1.55;;;14.80;99.90;;;;;;5033922;28;20024;-48
2022/07/28 02:27:02;;;;;;;4.55;1.85;;;14.80;99.90;;;;;;5033987;28;20036;-45
2022/07/28 02:29:34;;;;;;;5.88;1.98;;;14.80;99.90;;;;;;5033955;28;20021;-45
2022/07/28 02:32:17;;;;;;;5.65;1.70;;;14.80;99.90;;;;;;5033786;28;20397;-47
2022/07/28 02:34:43;;;;;;;2.83;1.63;;;14.70;99.90;;;;;;5033943;28;20115;-48
2022/07/28 02:37:11;;;;;;;3.13;1.60;;;14.70;99.90;;;;;;5033900;28;20033;-43
2022/07/28 02:39:47;;;;;;;4.72;1.60;;;14.70;99.90;;;;;;5034063;28;20117;-45
2022/07/28 02:42:17;;;;;;;3.55;1.70;;;14.70;99.90;;;;;;5033581;28;20048;-46
2022/07/28 02:44:47;;;;;;;6.18;2.00;;;14.70;99.90;;;;;;5033912;28;20364;-49
2022/07/28 02:47:17;;;;;;;3.88;1.70;;;14.70;99.90;;;;;;5033176;28;20036;-51
2022/07/28 02:49:45;;;;;;;4.85;1.63;;;14.60;99.90;;;;;;5033097;28;20480;-55
2022/07/28 02:52:12;;;;;;;4.97;1.85;;;14.60;99.90;;;;;;5033431;28;20677;-49
2022/07/28 02:54:39;;;;;;;4.38;1.80;;;14.60;99.90;;;;;;5033574;28;20060;-49
2022/07/28 02:57:06;;;;;;;6.45;2.00;;;14.60;99.90;;;;;;5033690;28;20044;-50
2022/07/28 02:59:34;;;;;;;2.72;1.55;;;14.60;99.90;;;;;;5033360;28;20017;-52
2022/07/28 03:02:00;;;;;;;5.45;1.90;;;14.60;99.90;;;;;;5033304;28;20041;-48
2022/07/28 03:05:09;;;;;;;3.88;1.50;;;14.60;99.90;;;;;;5033260;28;20021;-50
2022/07/28 03:07:15;;;;;;;5.38;1.90;;;14.70;99.90;;;;;;5035496;28;20045;-46
2022/07/28 03:09:46;;;;;;;4.40;1.70;;;14.60;99.90;;;;;;5033169;28;20388;-51
2022/07/28 03:12:13;;;;;;;3.25;1.58;;;14.60;99.90;;;;;;5033270;28;20037;-50
2022/07/28 03:14:39;;;;;;;5.03;2.05;;;14.60;99.90;;;;;;5033060;28;20079;-46
2022/07/28 03:17:05;;;;;;;5.57;1.80;;;14.50;99.90;;;;;;5032988;28;20101;-53
2022/07/28 03:19:31;;;;;;;2.97;1.60;;;14.50;99.90;;;;;;5032407;28;20108;-46
2022/07/28 03:21:57;;;;;;;3.67;1.60;;;14.50;99.90;;;;;;5032727;28;20140;-44
2022/07/28 03:24:25;;;;;;;3.50;1.60;;;14.50;99.90;;;;;;5032515;28;20080;-44
2022/07/28 03:27:03;;;;;;;3.92;2.22;;;14.40;99.90;;;;;;5032931;28;20117;-44
2022/07/28 03:29:32;;;;;;;5.40;1.90;;;14.40;99.90;;;;;;5032851;28;20026;-49
2022/07/28 03:31:59;;;;;;;3.72;1.83;;;14.30;99.90;;;;;;5032733;28;20053;-43
2022/07/28 03:34:25;;;;;;;3.75;1.90;;;14.30;99.90;;;;;;5032936;28;20175;-47
2022/07/28 03:37:00;;;;;;;4.78;1.83;;;14.30;99.90;;;;;;5032488;28;20021;-49
2022/07/28 03:39:28;;;;;;;5.97;1.95;;;14.30;99.90;;;;;;5032683;28;20084;-48
2022/07/28 03:41:56;;;;;;;4.53;2.00;;;14.30;99.90;;;;;;5031905;28;20052;-51
2022/07/28 03:44:23;;;;;;;5.90;1.80;;;14.40;99.90;;;;;;5032857;28;20045;-50
2022/07/28 03:46:49;;;;;;;4.45;1.95;;;14.30;99.90;;;;;;5032350;28;20116;-52
2022/07/28 03:49:15;;;;;;;3.10;1.80;;;14.30;99.90;;;;;;5032720;28;20101;-53
2022/07/28 03:51:40;;;;;;;4.43;1.52;;;14.30;99.90;;;;;;5032545;28;20048;-49
2022/07/28 03:54:06;;;;;;;4.47;1.88;;;14.30;99.90;;;;;;5032355;28;20155;-51
2022/07/28 03:56:32;;;;;;;2.58;1.70;;;14.30;99.90;;;;;;5032719;28;20057;-49
2022/07/28 03:58:57;;;;;;;4.65;2.00;;;14.30;99.90;;;;;;5032259;28;20135;-47
2022/07/28 04:01:23;;;;;;;5.00;1.80;;;14.30;99.90;;;;;;5031874;28;20030;-44
2022/07/28 04:03:48;;;;;;;5.30;2.20;;;14.30;99.90;;;;;;5031720;28;20037;-53
2022/07/28 04:06:14;;;;;;;5.45;2.15;;;14.40;99.90;;;;;;5032283;28;20022;-50
2022/07/28 04:08:41;;;;;;;6.38;2.40;;;14.40;99.90;;;;;;5032846;28;20026;-51
2022/07/28 04:11:07;;;;;;;6.20;2.17;;;14.40;99.90;;;;;;5031862;28;20037;-47
2022/07/28 04:13:35;;;;;;;6.43;2.38;;;14.40;99.90;;;;;;5032055;28;20264;-49
2022/07/28 04:16:01;;;;;;;3.78;1.88;;;14.40;99.90;;;;;;5031786;28;20414;-48
2022/07/28 04:18:26;;;;;;;5.68;2.30;;;14.50;99.90;;;;;;5032000;28;20025;-48
2022/07/28 04:20:52;;;;;;;4.30;1.95;;;14.50;99.90;;;;;;5031411;28;20467;-48
2022/07/28 04:23:19;;;;;;;4.35;2.00;;;14.50;99.90;;;;;;5031705;28;20017;-45
2022/07/28 04:25:45;;;;;;;4.15;2.20;;;14.50;99.90;;;;;;5031867;28;20025;-43
2022/07/28 04:28:10;;;;;;;5.18;2.30;;;14.50;99.90;;;;;;5031758;28;20024;-51
2022/07/28 04:30:36;;;;;;;6.28;2.30;;;14.60;99.90;;;;;;5031578;28;20444;-49
2022/07/28 04:33:03;;;;;;;3.17;2.10;;;14.60;99.90;;;;;;5031873;28;20093;-45
2022/07/28 04:35:28;;;;;;;4.90;2.15;;;14.60;99.90;;;;;;5031139;28;20048;-44
2022/07/28 04:37:57;;;;;;;3.47;1.90;;;14.60;99.90;;;;;;5031339;28;20497;-51
2022/07/28 04:40:24;;;;;;;6.15;2.30;;;14.60;99.90;;;;;;5030989;28;20400;-54
2022/07/28 04:42:50;;;;;;;6.18;2.30;;;14.60;99.90;;;;;;5030887;28;20237;-45
2022/07/28 04:45:16;;;;;;;5.68;1.92;;;14.70;99.90;;;;;;5031374;28;20452;-46
2022/07/28 04:47:42;;;;;;;7.40;2.80;;;14.70;99.90;;;;;;5031302;28;20450;-52
2022/07/28 04:50:09;;;;;;;4.70;1.85;;;14.70;99.90;;;;;;5030969;28;20160;-45
2022/07/28 04:52:36;;;;;;;4.13;1.90;;;14.70;99.90;;;;;;5031433;28;20037;-47
2022/07/28 04:55:02;;;;;;;4.90;1.88;;;14.70;99.90;;;;;;5031531;28;20104;-50
2022/07/28 04:57:28;;;;;;;5.18;2.10;;;14.80;99.90;;;;;;5031353;28;20029;-48
2022/07/28 04:59:55;;;;;;;3.28;1.75;;;14.80;99.90;;;;;;5031254;28;20029;-50
2022/07/28 05:02:21;;;;;;;6.88;2.25;;;14.80;99.90;;;;;;5031089;28;20060;-43
2022/07/28 05:04:47;;;;;;;4.35;1.77;;;14.80;99.90;;;;;;5031262;28;20099;-51
2022/07/28 05:07:12;;;;;;;3.58;1.90;;;14.90;99.90;;;;;;5031355;28;20107;-44
2022/07/28 05:09:38;;;;;;;5.00;1.90;;;14.90;99.90;;;;;;5031247;28;20038;-47
2022/07/28 05:12:05;;;;;;;5.35;2.25;;;15.00;99.90;;;;;;5031312;28;20064;-50
2022/07/28 05:14:31;;;;;;;3.95;1.70;;;15.10;99.90;;;;;;5029702;28;20057;-45
2022/07/28 05:16:57;;;;;;;5.40;1.90;;;15.10;99.90;;;;;;5031192;28;20068;-44
2022/07/28 05:19:23;;;;;;;3.50;1.83;;;15.20;99.90;;;;;;5030747;28;20025;-48
2022/07/28 05:21:48;;;;;;;4.05;1.73;;;15.20;99.90;;;;;;5030073;28;20132;-45
2022/07/28 05:24:14;;;;;;;4.00;2.00;;;15.30;99.90;;;;;;5030619;28;20026;-49
2022/07/28 05:26:40;;;;;;;5.60;2.00;;;15.30;99.90;;;;;;5030673;28;20087;-44
2022/07/28 05:29:06;;;;;;;4.07;1.90;;;15.50;99.90;;;;;;5031055;28;20021;-53
2022/07/28 05:31:32;;;;;;;5.65;2.30;;;15.60;99.90;;;;;;5030608;28;20021;-48
2022/07/28 05:33:59;;;;;;;8.63;2.35;;;15.70;99.90;;;;;;5030821;28;20026;-46
2022/07/28 05:36:25;;;;;;;5.07;2.00;;;15.70;99.90;;;;;;5031118;28;20087;-50
2022/07/28 05:38:51;;;;;;;4.25;2.00;;;15.80;99.90;;;;;;5030626;28;20505;-51
2022/07/28 05:41:16;;;;;;;8.85;2.17;;;15.90;99.90;;;;;;5030561;28;20048;-49
2022/07/28 05:43:42;;;;;;;6.60;2.22;;;16.00;99.90;;;;;;5030926;28;20021;-49
2022/07/28 05:46:08;;;;;;;6.43;1.98;;;16.10;99.90;;;;;;5030947;28;20503;-44
2022/07/28 05:48:33;;;;;;;6.63;1.90;;;16.10;99.90;;;;;;5032284;28;20021;-57
2022/07/28 05:50:59;;;;;;;5.13;1.85;;;16.20;99.90;;;;;;5034555;28;20033;-51
2022/07/28 05:53:25;;;;;;;5.78;1.90;;;16.20;99.90;;;;;;5034833;28;20033;-58
2022/07/28 05:55:51;;;;;;;7.93;2.05;;;16.30;99.90;;;;;;5034808;28;20017;-48
2022/07/28 05:58:20;;;;;;;5.72;2.13;;;16.30;99.90;;;;;;5034828;28;20033;-45
2022/07/28 06:00:46;;;;;;;5.32;2.08;;;16.40;99.60;;;;;;5034237;28;20030;-48
2022/07/28 06:03:12;;;;;;;9.13;2.17;;;16.50;99.90;;;;;;5034319;28;20044;-48
2022/07/28 06:05:38;;;;;;;4.85;2.00;;;16.70;98.90;;;;;;5034793;28;20028;-50
2022/07/28 06:08:04;;;;;;;6.47;2.08;;;16.90;98.90;;;;;;5032153;28;20030;-49
2022/07/28 06:13:15;;;;;;;7.43;2.58;;;18.50;96.70;;;;;;5034733;28;20420;-45
2022/07/28 06:15:41;;;;;;;7.65;1.85;;;19.70;93.90;;;;;;5034279;28;20443;-53
2022/07/28 06:18:07;;;;;;;6.53;1.75;;;20.30;92.20;;;;;;5034296;28;20034;-50
2022/07/28 06:20:33;;;;;;;4.70;1.42;;;20.30;91.50;;;;;;5034015;28;20029;-48
2022/07/28 06:22:58;;;;;;;5.43;1.77;;;20.80;91.40;;;;;;5033068;28;20067;-45
2022/07/28 06:25:28;;;;;;;4.30;1.60;;;20.90;91.30;;;;;;5034249;28;20036;-50
2022/07/28 06:27:56;;;;;;;4.75;1.67;;;20.70;91.30;;;;;;5034231;28;20374;-48
2022/07/28 06:30:22;;;;;;;4.65;1.65;;;20.60;90.60;;;;;;5033721;28;20672;-46
2022/07/28 06:32:48;;;;;;;5.45;1.67;;;20.50;91.10;;;;;;5034091;28;20108;-45
2022/07/28 06:35:15;;;;;;;2.83;1.40;;;20.50;91.70;;;;;;5034771;28;20030;-53
2022/07/28 06:37:42;;;;;;;5.82;1.80;;;20.40;92.00;;;;;;5043679;28;20072;-50
2022/07/28 06:40:10;;;;;;;4.35;1.65;;;20.30;91.60;;;;;;5033555;28;20122;-46
2022/07/28 06:42:36;;;;;;;3.63;1.70;;;20.10;92.20;;;;;;5033591;28;20091;-48
2022/07/28 06:45:03;;;;;;;4.63;1.70;;;20.10;92.00;;;;;;5033738;28;20034;-52
2022/07/28 06:47:29;;;;;;;5.60;1.48;;;20.20;92.60;;;;;;5046640;28;20096;-46
2022/07/28 06:50:02;;;;;;;7.53;2.03;;;20.20;92.30;;;;;;5033746;28;20152;-47
2022/07/28 06:52:28;;;;;;;7.75;2.38;;;20.20;91.80;;;;;;5033672;28;20022;-48
2022/07/28 06:54:54;;;;;;;6.95;1.73;;;20.20;92.00;;;;;;5033666;28;20029;-48
2022/07/28 06:57:21;;;;;;;3.75;1.55;;;20.10;92.20;;;;;;5033381;28;20032;-47
2022/07/28 06:59:47;;;;;;;4.43;1.60;;;20.00;92.60;;;;;;5032907;28;20025;-45
2022/07/28 07:02:15;;;;;;;3.00;1.60;;;20.00;92.30;;;;;;5032893;28;20092;-47
2022/07/28 07:04:41;;;;;;;3.92;1.58;;;20.00;92.20;;;;;;5033186;28;20530;-48
2022/07/28 07:07:07;;;;;;;6.35;2.08;;;20.30;92.50;;;;;;5065265;28;20033;-51
2022/07/28 07:09:32;;;;;;;4.28;1.70;;;20.80;91.20;;;;;;5032942;28;20022;-44
2022/07/28 07:11:58;;;;;;;5.38;1.60;;;21.00;90.70;;;;;;5032619;28;20030;-46
2022/07/28 07:14:24;;;;;;;3.03;1.52;;;21.20;89.60;;;;;;5032756;28;20103;-50
2022/07/28 07:16:50;;;;;;;7.32;1.58;;;20.90;88.80;;;;;;5033207;28;20432;-53
2022/07/28 07:19:16;;;;;;;5.60;1.92;;;21.00;90.70;;;;;;5033016;28;20544;-55
2022/07/28 07:21:42;;;;;;;5.03;1.90;;;21.20;88.50;;;;;;5032966;28;20029;-47
2022/07/28 07:24:10;;;;;;;3.45;1.50;;;21.40;89.40;;;;;;5033747;28;20520;-49
2022/07/28 07:26:36;;;;;;;4.95;2.10;;;21.30;88.10;;;;;;5032850;28;20033;-46
2022/07/28 07:29:02;;;;;;;3.63;1.42;;;21.10;88.50;;;;;;5032916;28;20030;-53
2022/07/28 07:31:27;;;;;;;4.40;1.90;;;21.30;89.30;;;;;;5032907;28;20036;-44
2022/07/28 07:33:53;;;;;;;5.85;2.15;;;21.40;87.40;;;;;;5032200;28;20377;-49
2022/07/28 07:36:19;;;;;;;5.10;1.60;;;21.30;88.90;;;;;;5022719;28;20104;-50
2022/07/28 07:38:44;;;;;;;4.32;1.60;;;21.70;87.50;;;;;;5030144;28;20045;-49
2022/07/28 07:41:11;;;;;;;4.97;1.75;;;21.80;86.10;;;;;;5047278;28;20037;-52
2022/07/28 07:43:37;;;;;;;4.88;1.88;;;21.60;86.10;;;;;;5048450;28;20465;-46
2022/07/28 07:46:06;;;;;;;7.28;3.50;;;21.50;86.30;;;;;;5024547;28;20028;-49
2022/07/28 07:48:31;;;;;;;6.47;2.87;;;21.40;87.30;;;;;;5046849;28;20028;-50
2022/07/28 07:50:57;;;;;;;7.82;2.83;;;21.40;88.20;;;;;;5048121;28;20021;-52
2022/07/28 07:53:23;;;;;;;6.63;3.15;;;21.50;87.50;;;;;;5050019;28;20017;-46
2022/07/28 07:55:50;;;;;;;6.25;2.80;;;22.20;86.50;;;;;;5047458;28;20507;-48
2022/07/28 07:58:15;;;;;;;6.60;2.38;;;22.20;84.70;;;;;;5048942;28;20108;-45
2022/07/28 08:00:41;;;;;;;8.40;2.63;;;22.10;84.20;;;;;;5046074;28;20811;-45
2022/07/28 08:03:07;;;;;;;6.10;2.53;;;21.70;85.00;;;;;;5049289;28;20045;-45
2022/07/28 08:05:33;;;;;;;6.43;2.53;;;21.70;87.10;;;;;;5048634;28;20056;-47
2022/07/28 08:07:58;;;;;;;5.40;2.63;;;21.70;86.40;;;;;;5050227;28;20032;-45
2022/07/28 08:10:24;;;;;;;6.55;2.10;;;21.70;85.90;;;;;;5047163;28;20017;-46
2022/07/28 08:12:50;;;;;;;5.38;1.80;;;21.40;87.40;;;;;;5043286;28;20388;-44
2022/07/28 08:15:15;;;;;;;4.95;2.08;;;21.40;86.50;;;;;;5049206;28;20055;-46
2022/07/28 08:17:41;;;;;;;5.50;2.33;;;21.60;87.50;;;;;;5043608;28;20029;-48
2022/07/28 08:20:07;;;;;;;4.85;1.92;;;21.70;85.10;;;;;;5028498;28;20362;-50
2022/07/28 08:22:33;;;;;;;6.95;2.10;;;21.80;85.30;;;;;;5031614;28;20037;-48
2022/07/28 08:25:00;;;;;;;17.02;5.85;;;22.20;88.90;;;;;;5037895;28;20052;-51
2022/07/28 08:27:26;;;;;;;12.45;4.95;;;22.80;82.60;;;;;;5047289;28;20048;-46
2022/07/28 08:29:52;;;;;;;10.55;5.15;;;23.10;82.40;;;;;;5035281;28;20026;-45
2022/07/28 08:32:18;;;;;;;11.68;5.20;;;23.50;81.70;;;;;;5037417;28;20021;-48
2022/07/28 08:34:44;;;;;;;10.32;4.82;;;23.90;79.30;;;;;;5048707;28;20476;-44
2022/07/28 08:37:09;;;;;;;8.20;3.47;;;24.40;79.20;;;;;;5036416;28;20021;-46
2022/07/28 08:39:35;;;;;;;6.68;3.03;;;24.40;76.70;;;;;;5031388;28;20611;-44
2022/07/28 08:42:24;;;;;;;8.18;2.75;;;23.90;77.00;;;;;;5030989;28;20840;-46
2022/07/28 08:44:57;;;;;;;6.35;2.50;;;24.10;76.20;;;;;;5029697;28;20022;-52
2022/07/28 08:47:25;;;;;;;5.30;2.40;;;24.20;77.10;;;;;;5035131;28;20025;-46
2022/07/28 08:49:53;;;;;;;4.55;2.30;;;24.10;76.40;;;;;;5030574;28;20013;-47
2022/07/28 08:52:20;;;;;;;5.75;1.85;;;24.20;76.90;;;;;;5030527;28;20114;-54
2022/07/28 08:54:48;;;;;;;8.32;1.75;;;24.70;75.00;;;;;;5031200;28;20029;-49
2022/07/28 08:57:24;;;;;;;6.95;1.60;;;25.30;70.60;;;;;;5031013;28;20029;-46
2022/07/28 08:59:51;;;;;;;7.25;2.30;;;26.10;70.50;;;;;;5031086;28;20025;-46
2022/07/28 09:02:17;;;;;;;5.25;2.90;;;25.80;67.00;;;;;;5032992;28;20445;-47
2022/07/28 09:04:45;;;;;;;4.90;1.88;;;26.40;69.30;;;;;;5031378;28;20045;-50
2022/07/28 09:07:11;;;;;;;4.82;1.73;;;26.20;67.20;;;;;;5030888;28;20022;-44
2022/07/28 09:09:38;;;;;;;7.82;1.75;;;26.10;64.50;;;;;;5030803;28;20026;-44
2022/07/28 09:12:04;;;;;;;5.30;1.20;;;26.50;65.70;;;;;;5030861;28;20108;-44
2022/07/28 09:14:31;;;;;;;2.83;1.27;;;26.50;64.50;;;;;;5030358;28;20384;-44
2022/07/28 09:17:01;;;;;;;5.40;1.30;;;26.20;64.20;;;;;;5031226;28;20029;-51
2022/07/28 09:19:28;;;;;;;4.90;1.40;;;26.10;64.20;;;;;;5030846;28;20499;-47
2022/07/28 09:21:55;;;;;;;7.50;1.73;;;25.80;62.70;;;;;;5030383;28;20032;-53
2022/07/28 09:24:37;;;;;;;3.17;1.38;;;25.30;62.60;;;;;;5027283;28;20116;-50
2022/07/28 09:27:08;;;;;;;5.70;1.73;;;25.00;64.70;;;;;;5028395;28;20061;-49
2022/07/28 09:29:35;;;;;;;2.35;1.20;;;25.10;62.90;;;;;;5023739;28;20026;-50
2022/07/28 09:32:01;;;;;;;4.75;1.60;;;24.80;64.10;;;;;;5034765;28;20029;-48
2022/07/28 09:34:26;;;;;;;2.58;1.05;;;24.90;63.60;;;;;;5024861;28;20243;-44
2022/07/28 09:36:52;;;;;;;4.45;1.50;;;24.80;64.60;;;;;;5019664;28;20022;-46
2022/07/28 09:39:35;;;;;;;4.38;1.30;;;25.30;64.10;;;;;;5031395;28;20500;-50
2022/07/28 09:42:01;;;;;;;4.20;1.60;;;24.90;64.40;;;;;;5035900;28;20041;-48
2022/07/28 09:44:27;;;;;;;4.07;1.42;;;25.00;64.10;;;;;;5027102;28;20040;-46
2022/07/28 09:46:54;;;;;;;4.78;1.23;;;24.60;65.10;;;;;;5036496;28;20026;-46
2022/07/28 09:49:21;;;;;;;2.72;1.23;;;24.20;64.70;;;;;;5026801;28;20022;-45
2022/07/28 09:52:04;;;;;;;4.55;1.40;;;23.80;67.10;;;;;;5037386;28;20048;-50
2022/07/28 09:54:30;;;;;;;5.60;1.50;;;23.70;67.20;;;;;;5031139;28;20388;-47
2022/07/28 09:56:56;;;;;;;3.42;1.48;;;23.80;66.90;;;;;;5031372;28;20032;-45
2022/07/28 09:59:21;;;;;;;6.00;1.40;;;24.00;67.10;;;;;;5030434;28;20465;-52
2022/07/28 10:01:57;;;;;;;6.53;2.05;;;24.20;66.90;;;;;;5033845;28;20064;-52
2022/07/28 10:04:31;;;;;;;5.00;1.77;;;24.40;66.90;;;;;;5033049;28;20037;-46
2022/07/28 10:07:05;;;;;;;6.78;1.27;;;24.10;64.50;;;;;;5038530;28;20394;-46
2022/07/28 10:09:31;;;;;;;4.28;1.50;;;24.10;64.70;;;;;;5044781;28;20124;-47
2022/07/28 10:12:27;;;;;;;3.25;1.35;;;24.10;65.50;;;;;;5041041;28;20028;-57
2022/07/28 10:14:59;;;;;;;3.67;1.77;;;24.50;64.10;;;;;;5034964;28;20040;-47
2022/07/28 10:17:30;;;;;;;6.50;1.40;;;24.50;62.40;;;;;;5035013;28;20030;-46
2022/07/28 10:20:00;;;;;;;5.45;1.60;;;24.20;62.90;;;;;;5031777;28;20037;-44
2022/07/28 10:22:31;;;;;;;3.10;1.40;;;24.10;63.10;;;;;;5031237;28;20087;-49
2022/07/28 10:24:59;;;;;;;5.40;1.70;;;24.00;63.80;;;;;;5039305;28;20033;-45
2022/07/28 10:27:26;;;;;;;7.20;1.60;;;24.30;63.90;;;;;;5043771;28;20036;-43
2022/07/28 10:30:00;;;;;;;4.50;1.48;;;24.40;64.90;;;;;;5040857;28;20534;-46
2022/07/28 10:32:30;;;;;;;3.72;1.25;;;24.30;60.00;;;;;;5039518;28;20045;-48
2022/07/28 10:35:05;;;;;;;4.20;1.30;;;24.50;61.50;;;;;;5036018;28;20037;-46
2022/07/28 10:37:36;;;;;;;3.20;1.27;;;25.00;56.70;;;;;;5042401;28;20111;-49
2022/07/28 10:40:08;;;;;;;4.93;1.70;;;25.00;55.20;;;;;;5049129;28;20045;-47
2022/07/28 10:42:35;;;;;;;3.30;1.10;;;25.10;54.30;;;;;;5044664;28;20073;-49
2022/07/28 10:45:02;;;;;;;2.35;1.13;;;25.20;53.50;;;;;;5034146;28;20026;-47
2022/07/28 10:47:28;;;;;;;2.60;1.20;;;24.80;54.50;;;;;;5045337;28;20080;-47
2022/07/28 10:49:55;;;;;;;3.20;1.20;;;25.00;54.50;;;;;;5041454;28;20480;-49
2022/07/28 10:52:22;;;;;;;3.88;1.30;;;24.90;54.90;;;;;;5034747;28;20021;-43
2022/07/28 10:54:55;;;;;;;5.63;1.15;;;25.00;55.90;;;;;;5044459;28;20033;-50
2022/07/28 10:57:22;;;;;;;3.58;1.33;;;25.10;54.90;;;;;;5034176;28;20025;-48
2022/07/28 10:59:51;;;;;;;4.15;1.30;;;25.30;53.90;;;;;;5043087;28;20380;-45
2022/07/28 11:02:43;;;;;;;4.57;1.10;;;24.70;52.80;;;;;;5038946;28;20041;-51
2022/07/28 11:05:24;;;;;;;4.43;1.25;;;24.70;52.80;;;;;;5047596;28;20021;-46
2022/07/28 11:07:50;;;;;;;5.35;1.48;;;24.80;54.10;;;;;;5047943;28;20048;-50
2022/07/28 11:10:17;;;;;;;3.53;1.50;;;24.60;52.50;;;;;;5044793;28;20428;-50
2022/07/28 11:12:55;;;;;;;4.75;1.52;;;24.90;56.60;;;;;;5039381;28;20018;-52
2022/07/28 11:15:27;;;;;;;7.00;1.20;;;25.30;55.90;;;;;;5045083;28;20088;-52
2022/07/28 11:18:07;;;;;;;4.97;1.08;;;25.30;52.90;;;;;;5046359;28;20442;-49
2022/07/28 11:20:59;;;;;;;4.18;1.27;;;24.90;51.40;;;;;;5030916;28;20026;-53
2022/07/28 11:23:42;;;;;;;4.63;1.30;;;24.60;51.00;;;;;;5037432;28;20041;-55
2022/07/28 11:26:22;;;;;;;2.60;1.10;;;24.40;51.40;;;;;;5043732;28;20083;-55
2022/07/28 11:29:02;;;;;;;3.03;1.10;;;24.50;53.40;;;;;;5037591;28;20044;-47
2022/07/28 11:31:43;;;;;;;2.83;1.40;;;24.80;52.30;;;;;;5035597;28;20037;-55
2022/07/28 11:34:13;;;;;;;3.28;1.40;;;24.20;52.10;;;;;;5038534;28;20112;-57
2022/07/28 11:36:58;;;;;;;6.95;1.60;;;23.80;52.70;;;;;;5036050;28;20061;-47
2022/07/28 11:39:29;;;;;;;3.97;1.30;;;23.90;52.70;;;;;;5040966;28;20077;-54
2022/07/28 11:41:54;;;;;;;3.63;1.20;;;23.70;52.20;;;;;;5032657;28;20386;-50
2022/07/28 11:44:25;;;;;;;3.03;1.23;;;23.90;53.90;;;;;;5031623;28;20481;-50
2022/07/28 11:46:51;;;;;;;2.97;1.30;;;24.10;52.50;;;;;;5031563;28;20564;-48
2022/07/28 11:49:19;;;;;;;5.78;1.23;;;24.10;52.30;;;;;;5030764;28;20104;-49
2022/07/28 11:52:07;;;;;;;4.93;1.05;;;24.30;52.70;;;;;;5030471;28;20079;-45
2022/07/28 11:54:37;;;;;;;2.93;1.20;;;24.60;54.00;;;;;;5026522;28;20037;-48
2022/07/28 11:57:06;;;;;;;4.30;1.00;;;24.60;51.50;;;;;;5030658;28;20029;-48
2022/07/28 11:59:43;;;;;;;5.30;1.33;;;24.70;50.20;;;;;;5030461;28;20025;-53
2022/07/28 12:02:08;;;;;;;6.05;1.50;;;24.50;50.80;;;;;;5030905;28;20033;-45
2022/07/28 12:04:34;;;;;;;5.07;1.50;;;24.10;50.70;;;;;;5031623;28;20526;-43
2022/07/28 12:07:01;;;;;;;3.67;1.17;;;24.20;51.60;;;;;;5032006;28;20083;-43
2022/07/28 12:09:33;;;;;;;3.83;1.20;;;24.20;51.40;;;;;;5031879;28;20104;-44
2022/07/28 12:11:59;;;;;;;3.42;1.10;;;24.10;53.60;;;;;;5035747;28;20020;-48
2022/07/28 12:14:27;;;;;;;2.08;1.05;;;24.20;51.70;;;;;;5045116;28;20489;-46
2022/07/28 12:16:54;;;;;;;3.28;1.23;;;24.10;53.10;;;;;;5033277;28;20017;-47
2022/07/28 12:19:20;;;;;;;5.57;1.63;;;24.10;53.00;;;;;;5031857;28;20025;-44
2022/07/28 12:21:55;;;;;;;3.00;1.35;;;24.00;52.20;;;;;;5039779;28;20060;-44
2022/07/28 12:24:32;;;;;;;6.38;1.50;;;24.10;52.80;;;;;;5033451;28;20021;-47
2022/07/28 12:26:59;;;;;;;3.75;1.88;;;24.10;52.20;;;;;;5036819;28;20095;-53
2022/07/28 12:29:32;;;;;;;4.05;1.67;;;23.90;52.40;;;;;;5041308;28;20029;-44
2022/07/28 12:32:03;;;;;;;4.07;1.85;;;23.80;52.70;;;;;;5034727;28;20037;-51
2022/07/28 12:34:31;;;;;;;3.85;1.90;;;23.70;52.90;;;;;;5038603;28;20024;-50
2022/07/28 12:37:02;;;;;;;4.50;1.52;;;23.90;54.50;;;;;;5041779;28;20048;-53
2022/07/28 12:39:29;;;;;;;3.17;1.25;;;23.60;52.90;;;;;;5021348;28;20037;-45
2022/07/28 12:42:04;;;;;;;5.68;1.67;;;23.50;52.70;;;;;;5029780;28;20052;-48
2022/07/28 12:44:41;;;;;;;3.70;1.13;;;23.10;53.30;;;;;;5035519;28;20057;-46
2022/07/28 12:47:10;;;;;;;4.20;1.40;;;23.10;55.20;;;;;;5027364;28;20025;-48
2022/07/28 12:49:38;;;;;;;4.57;1.52;;;23.30;54.70;;;;;;5027707;28;20067;-53
2022/07/28 12:52:33;;;;;;;6.18;1.80;;;23.00;54.20;;;;;;5035854;28;20128;-56
2022/07/28 12:54:58;;;;;;;6.22;1.50;;;23.00;55.10;;;;;;5040091;28;20041;-46
2022/07/28 12:57:52;;;;;;;3.00;1.30;;;23.10;53.90;;;;;;5045869;28;20031;-51
2022/07/28 13:00:21;;;;;;;4.72;1.42;;;22.90;55.10;;;;;;5044092;28;20056;-56